Hopkinton, MA

12:39 PM EDT on April 28, 2015 (GMT -0400)
Worcester Regional | | Change Station
CLOSE
Current Station
Airport
Location: Worcester,
Elevation: 1007 ft
Nearby Weather Stations

Elev 1007 ft 42.27 °N, 71.87 °W | Updated 45 minutes ago

Mostly Cloudy
Mostly Cloudy
54 °F
Feels Like 54 °F
N
13
Wind Variable Wind from North
Gusts 21 mph

Today
High -- | Low -- °F
--% Chance of Precip.
Yesterday
High -- | Low -- °F
Precip. -- in
5:46 AM 7:41 PM
Waxing Gibbous, 75% visible
Pressure 29.74 in
Visibility 10.0 miles
Clouds Few 4100 ft
Scattered Clouds 5000 ft
Dew Point 32 °F
Humidity 43%
Rainfall 0.10 in
Snow Depth Not available.
UV 8 out of 12
Pollen 10.30 out of 12
Air Quality Not available.
Flu Activity Widespread
METAR KORH 281554Z 35011G18KT 10SM FEW041 SCT050 12/00 A2973 RMK AO2 RAB46E51 SLP071 P0000 T01220000

More Conditions Fewer Conditions

Pressure 29.74 in
Visibility 10.0 miles
Clouds Few 4100 ft
Scattered Clouds 5000 ft
Dew Point 32 °F
Humidity 43%
Rainfall 0.10 in
Snow Depth Not available.
UV 8 out of 12
Pollen 10.30 out of 12
Air Quality Not available.
Flu Activity Widespread
METAR KORH 281554Z 35011G18KT 10SM FEW041 SCT050 12/00 A2973 RMK AO2 RAB46E51 SLP071 P0000 T01220000

More Conditions Fewer Conditions

10-Day Weather Forecast

Almanac

Astronomy

Apr. 28, 2015 Rise Set
Actual Time
Civil Twilight
Nautical Twilight
Astronomical Twilight
Moon
Length of Visible Light
Length of Day
Tomorrow will be .
, % of the Moon is Illuminated

Today's Extremes

State Highs State Lows

Community

WunderPhotos

Upload Photos

1,817,695 photos uploaded!

WunderBlogs® & News

Nearby

Air Quality

  Air Quality AQ Index Pollutant
Not available.

Snow Depth

Station Depth Elevation

Earthquake Activity

City Distance Mag. Time & Date
Minimum magnitude displayed is 2.5.

Coastal Water Temperatures

Place Temperature

Stations

Nearby Weather Stations

Station Location Temp. Windchill Dew Point Humidity Wind Precip. Elev Updated Type